createdAt,value
2017-10-26T00:01:19.500Z,11.90
2017-10-26T00:03:48.526Z,13.63
2017-10-26T00:06:16.831Z,12.33
2017-10-26T00:08:45.103Z,10.63
2017-10-26T00:11:13.364Z,10.40
2017-10-26T00:13:41.666Z,10.37
2017-10-26T00:16:09.938Z,14.10
2017-10-26T00:18:38.774Z,9.67
2017-10-26T00:21:07.084Z,12.00
2017-10-26T00:23:35.325Z,10.13
2017-10-26T00:26:04.893Z,14.60
2017-10-26T00:28:33.204Z,19.37
2017-10-26T00:31:02.252Z,13.77
2017-10-26T00:33:31.148Z,13.00
2017-10-26T00:35:59.426Z,11.70
2017-10-26T00:38:27.687Z,10.50
2017-10-26T00:40:55.963Z,18.37
2017-10-26T00:43:24.224Z,17.20
2017-10-26T00:45:52.921Z,16.13
2017-10-26T00:48:21.201Z,11.17
2017-10-26T00:50:49.483Z,11.50
2017-10-26T00:53:17.792Z,12.10
2017-10-26T00:55:46.097Z,12.10
2017-10-26T00:58:14.339Z,11.53
2017-10-26T01:00:43.059Z,15.73
2017-10-26T01:03:11.339Z,11.97
2017-10-26T01:05:39.596Z,14.47
2017-10-26T01:08:08.686Z,14.50
2017-10-26T01:10:37.773Z,10.63
2017-10-26T01:13:06.075Z,12.60
2017-10-26T01:15:34.396Z,13.33
2017-10-26T01:18:02.654Z,22.70
2017-10-26T01:20:30.925Z,19.67
2017-10-26T01:22:59.278Z,29.57
2017-10-26T01:25:27.557Z,27.97
2017-10-26T01:27:55.840Z,18.10
2017-10-26T01:30:24.161Z,17.50
2017-10-26T01:32:52.421Z,12.50
2017-10-26T01:35:20.673Z,10.07
2017-10-26T01:37:48.996Z,12.03
2017-10-26T01:40:17.294Z,12.83
2017-10-26T01:42:45.960Z,17.60
2017-10-26T01:45:14.211Z,11.50
2017-10-26T01:47:42.465Z,15.57
2017-10-26T01:50:11.172Z,13.60
2017-10-26T01:52:39.434Z,13.53
2017-10-26T01:55:07.691Z,11.80
2017-10-26T01:57:36.031Z,15.47
2017-10-26T02:00:05.087Z,18.23
2017-10-26T02:02:33.362Z,12.87
2017-10-26T02:05:01.744Z,12.10
2017-10-26T02:07:30.028Z,21.03
2017-10-26T02:09:58.317Z,11.80
2017-10-26T02:12:26.659Z,11.50
2017-10-26T02:14:54.938Z,13.83
2017-10-26T02:17:23.186Z,12.43
2017-10-26T02:19:51.461Z,13.50
2017-10-26T02:22:19.746Z,15.40
2017-10-26T02:24:48.084Z,14.73
2017-10-26T02:27:16.376Z,12.47
2017-10-26T02:30:03.265Z,18.97
2017-10-26T02:32:31.528Z,18.70
2017-10-26T02:34:59.818Z,16.00
2017-10-26T02:37:28.179Z,17.33
2017-10-26T02:39:56.422Z,19.10
2017-10-26T02:42:24.705Z,17.47
2017-10-26T02:44:53.033Z,18.80
2017-10-26T02:47:21.368Z,21.73
2017-10-26T02:49:49.665Z,21.43
2017-10-26T02:52:18.020Z,23.37
2017-10-26T02:54:46.310Z,26.50
2017-10-26T02:57:14.599Z,20.83
2017-10-26T02:59:42.923Z,26.83
2017-10-26T03:02:11.203Z,24.50
2017-10-26T03:04:39.477Z,26.80
2017-10-26T03:07:07.844Z,24.80
2017-10-26T03:09:36.883Z,25.60
2017-10-26T03:12:05.157Z,23.97
2017-10-26T03:14:33.451Z,28.83
2017-10-26T03:17:01.697Z,25.90
2017-10-26T03:19:30.782Z,28.97
2017-10-26T03:21:59.045Z,25.63
2017-10-26T03:24:27.296Z,27.00
2017-10-26T03:26:56.732Z,29.37
2017-10-26T03:29:25.027Z,25.20
2017-10-26T03:31:53.295Z,23.50
2017-10-26T03:34:21.621Z,26.97
2017-10-26T03:36:49.893Z,24.40
2017-10-26T03:39:18.178Z,30.23
2017-10-26T03:41:46.889Z,22.63
2017-10-26T03:44:15.140Z,23.80
2017-10-26T03:46:44.180Z,23.23
2017-10-26T03:49:12.517Z,21.60
2017-10-26T03:51:41.543Z,23.87
2017-10-26T03:54:09.810Z,29.17
2017-10-26T03:56:38.164Z,30.20
2017-10-26T03:59:07.197Z,23.70
2017-10-26T04:01:35.557Z,24.80
2017-10-26T04:04:03.879Z,24.43
2017-10-26T04:06:32.173Z,22.10
2017-10-26T04:09:00.447Z,22.97
2017-10-26T04:11:28.812Z,21.93
2017-10-26T04:13:57.107Z,22.40
2017-10-26T04:16:25.483Z,24.00
2017-10-26T04:18:54.598Z,26.17
2017-10-26T04:21:23.656Z,21.43
2017-10-26T04:23:51.934Z,23.17
2017-10-26T04:26:20.281Z,27.90
2017-10-26T04:28:48.532Z,24.70
2017-10-26T04:31:16.813Z,15.90
2017-10-26T04:33:45.198Z,21.27
2017-10-26T04:36:13.466Z,25.00
2017-10-26T04:38:41.762Z,21.93
2017-10-26T04:41:10.117Z,18.23
2017-10-26T04:43:38.386Z,13.63
2017-10-26T04:46:06.655Z,12.57
2017-10-26T04:48:34.941Z,11.57
2017-10-26T04:51:03.212Z,23.83
2017-10-26T04:53:31.561Z,26.20
2017-10-26T04:55:59.852Z,23.47
2017-10-26T04:58:28.906Z,23.50
2017-10-26T05:00:57.734Z,26.07
2017-10-26T05:03:26.772Z,15.40
2017-10-26T05:05:55.038Z,23.47
2017-10-26T05:08:23.371Z,27.77
2017-10-26T05:10:52.404Z,22.33
2017-10-26T05:13:20.700Z,43.60
2017-10-26T05:15:49.488Z,42.83
2017-10-26T05:18:18.552Z,36.83
2017-10-26T05:20:46.803Z,34.60
2017-10-26T05:23:17.455Z,25.57
2017-10-26T05:25:45.753Z,11.53
2017-10-26T05:28:14.015Z,13.13
2017-10-26T05:30:42.322Z,9.77
2017-10-26T05:33:10.585Z,10.17
2017-10-26T05:35:38.846Z,11.30
2017-10-26T05:38:07.657Z,12.13
2017-10-26T05:40:35.918Z,24.70
2017-10-26T05:43:04.203Z,14.20
2017-10-26T05:45:32.535Z,10.90
2017-10-26T05:48:01.619Z,10.37
2017-10-26T05:50:30.700Z,11.47
2017-10-26T05:52:59.720Z,11.00
2017-10-26T05:55:28.780Z,11.03
2017-10-26T05:57:57.090Z,11.93
2017-10-26T06:00:26.234Z,9.50
2017-10-26T06:02:54.549Z,11.53
2017-10-26T06:05:22.799Z,34.37
2017-10-26T06:07:51.126Z,10.60
2017-10-26T06:10:19.377Z,12.10
2017-10-26T06:12:47.689Z,11.73
2017-10-26T06:15:16.000Z,13.67
2017-10-26T06:17:44.281Z,17.37
2017-10-26T06:20:12.614Z,12.20
2017-10-26T06:22:40.966Z,25.47
2017-10-26T06:25:10.008Z,30.90
2017-10-26T06:27:38.282Z,27.10
2017-10-26T06:30:07.046Z,29.90
2017-10-26T06:32:35.364Z,21.87
2017-10-26T06:35:03.632Z,25.07
2017-10-26T06:37:32.376Z,14.77
2017-10-26T06:40:00.696Z,27.47
2017-10-26T06:42:28.960Z,32.07
2017-10-26T06:44:57.775Z,18.30
2017-10-26T06:47:26.049Z,27.40
2017-10-26T06:49:54.327Z,22.43
2017-10-26T06:52:22.649Z,41.90
2017-10-26T06:54:50.949Z,29.70
2017-10-26T06:57:19.226Z,27.63
2017-10-26T06:59:47.549Z,30.53
2017-10-26T07:02:16.005Z,32.80
2017-10-26T07:04:44.315Z,26.60
2017-10-26T07:07:13.494Z,31.63
2017-10-26T07:09:41.767Z,35.77
2017-10-26T07:12:10.028Z,29.60
2017-10-26T07:14:38.848Z,30.33
2017-10-26T07:17:07.156Z,27.00
2017-10-26T07:19:35.524Z,34.80
2017-10-26T07:22:03.859Z,29.80
2017-10-26T07:24:32.139Z,26.60
2017-10-26T07:27:00.526Z,29.90
2017-10-26T07:29:28.810Z,34.27
2017-10-26T07:31:57.972Z,28.10
2017-10-26T07:34:27.142Z,28.37
2017-10-26T07:36:55.456Z,21.53
2017-10-26T07:39:24.277Z,29.37
2017-10-26T07:41:52.692Z,28.57
2017-10-26T07:44:20.948Z,34.00
2017-10-26T07:46:49.225Z,25.93
2017-10-26T07:49:17.528Z,30.33
2017-10-26T07:51:45.903Z,24.87
2017-10-26T07:54:14.204Z,24.50
2017-10-26T07:56:42.481Z,31.50
2017-10-26T07:59:10.763Z,25.00
2017-10-26T08:01:39.139Z,26.40
2017-10-26T08:04:07.490Z,20.20
2017-10-26T08:06:35.786Z,21.30
2017-10-26T08:09:04.047Z,29.53
2017-10-26T08:11:32.384Z,22.07
2017-10-26T08:14:01.480Z,29.23
2017-10-26T08:16:30.502Z,22.07
2017-10-26T08:18:58.773Z,21.27
2017-10-26T08:21:27.877Z,25.60
2017-10-26T08:23:56.151Z,21.60
2017-10-26T08:26:24.430Z,22.83
2017-10-26T08:28:52.723Z,24.87
2017-10-26T08:31:21.049Z,21.57
2017-10-26T08:33:50.131Z,22.57
2017-10-26T08:36:19.168Z,20.73
2017-10-26T08:38:47.439Z,14.93
2017-10-26T08:41:15.767Z,19.57
2017-10-26T08:43:44.040Z,21.67
2017-10-26T08:46:13.106Z,20.97
2017-10-26T08:48:41.412Z,23.13
2017-10-26T08:51:09.657Z,16.17
2017-10-26T08:53:37.915Z,19.03
2017-10-26T08:56:06.250Z,13.20
2017-10-26T08:58:35.269Z,13.30
2017-10-26T09:01:03.516Z,15.70
2017-10-26T09:03:32.559Z,12.10
2017-10-26T09:06:00.896Z,15.10
2017-10-26T09:08:29.983Z,13.37
2017-10-26T09:10:59.036Z,14.13
2017-10-26T09:13:27.332Z,15.07
2017-10-26T09:15:56.179Z,11.50
2017-10-26T09:18:24.425Z,14.60
2017-10-26T09:20:52.682Z,7.50
2017-10-26T09:23:21.014Z,9.53
2017-10-26T09:25:49.247Z,9.57
2017-10-26T09:28:18.333Z,9.30
2017-10-26T09:30:47.338Z,11.53
2017-10-26T09:33:21.995Z,15.27
2017-10-26T09:35:50.245Z,24.57
2017-10-26T09:38:18.488Z,8.47
2017-10-26T09:40:46.796Z,15.50
2017-10-26T09:43:15.800Z,13.20
2017-10-26T09:45:44.050Z,13.43
2017-10-26T09:48:13.254Z,8.87
2017-10-26T09:50:41.488Z,8.97
2017-10-26T09:53:09.735Z,14.03
2017-10-26T09:55:38.034Z,9.00
2017-10-26T09:58:06.282Z,9.17
2017-10-26T10:00:34.538Z,9.63
2017-10-26T10:03:03.632Z,15.00
2017-10-26T10:05:32.653Z,8.87
2017-10-26T10:08:00.908Z,9.60
2017-10-26T10:10:30.031Z,6.80
2017-10-26T10:12:58.300Z,11.80
2017-10-26T10:15:26.533Z,10.93
2017-10-26T10:17:55.636Z,11.63
2017-10-26T10:20:24.656Z,8.10
2017-10-26T10:22:52.896Z,8.07
2017-10-26T10:25:22.071Z,10.50
2017-10-26T10:27:50.320Z,13.23
2017-10-26T10:30:18.571Z,7.47
2017-10-26T10:32:46.873Z,12.80
2017-10-26T10:35:15.157Z,10.83
2017-10-26T10:37:43.437Z,9.03
2017-10-26T10:40:11.779Z,13.37
2017-10-26T10:42:40.040Z,9.70
2017-10-26T10:45:09.057Z,9.30
2017-10-26T10:47:37.397Z,10.37
2017-10-26T10:50:06.408Z,9.83
2017-10-26T10:52:34.687Z,10.27
2017-10-26T10:55:02.976Z,11.10
2017-10-26T10:57:31.252Z,14.53
2017-10-26T11:00:04.978Z,11.07
2017-10-26T11:02:33.215Z,13.93
2017-10-26T11:05:01.494Z,10.60
2017-10-26T11:07:29.793Z,7.90
2017-10-26T11:09:58.047Z,14.23
2017-10-26T11:12:26.318Z,15.03
2017-10-26T11:14:54.759Z,10.23
2017-10-26T11:17:23.024Z,9.80
2017-10-26T11:19:51.265Z,12.70
2017-10-26T11:22:19.683Z,15.10
2017-10-26T11:24:47.976Z,12.00
2017-10-26T11:27:17.300Z,13.67
2017-10-26T11:29:46.350Z,15.43
2017-10-26T11:32:14.617Z,9.80
2017-10-26T11:34:44.141Z,11.40
2017-10-26T11:37:12.471Z,11.47
2017-10-26T11:39:40.736Z,11.77
2017-10-26T11:42:08.996Z,8.53
2017-10-26T11:44:38.084Z,11.53
2017-10-26T11:47:07.116Z,11.90
2017-10-26T11:49:35.422Z,9.10
2017-10-26T11:52:03.758Z,9.73
2017-10-26T11:54:32.013Z,11.87
2017-10-26T11:57:01.056Z,9.77
2017-10-26T11:59:29.393Z,9.63
2017-10-26T12:01:57.633Z,14.20
2017-10-26T12:04:25.918Z,12.93
2017-10-26T12:06:54.236Z,10.63
2017-10-26T12:09:22.575Z,15.27
2017-10-26T12:11:50.835Z,10.47
2017-10-26T12:14:19.142Z,9.63
2017-10-26T12:16:48.148Z,12.80
2017-10-26T12:19:16.393Z,11.93
2017-10-26T12:21:44.703Z,13.80
2017-10-26T12:24:13.090Z,12.97
2017-10-26T12:26:41.354Z,10.90
2017-10-26T12:29:09.661Z,9.30
2017-10-26T12:31:37.915Z,10.27
2017-10-26T12:34:06.166Z,9.50
2017-10-26T12:36:35.287Z,9.03
2017-10-26T12:39:03.694Z,11.20
2017-10-26T12:41:31.945Z,11.13
2017-10-26T12:44:00.308Z,15.03
2017-10-26T12:46:28.596Z,11.20
2017-10-26T12:48:56.841Z,13.60
2017-10-26T12:51:26.314Z,9.90
2017-10-26T12:53:54.589Z,15.53
2017-10-26T12:56:22.941Z,10.33
2017-10-26T12:58:51.417Z,11.57
2017-10-26T13:01:19.708Z,13.33
2017-10-26T13:03:47.983Z,8.90
2017-10-26T13:06:16.312Z,10.97
2017-10-26T13:08:44.606Z,16.47
2017-10-26T13:11:12.873Z,17.30
2017-10-26T13:13:42.016Z,12.43
2017-10-26T13:16:10.266Z,16.47
2017-10-26T13:18:38.535Z,13.00
2017-10-26T13:21:06.840Z,13.00
2017-10-26T13:23:35.093Z,12.70
2017-10-26T13:26:03.359Z,16.17
2017-10-26T13:28:31.713Z,12.60
2017-10-26T13:30:59.974Z,11.70
2017-10-26T13:33:28.212Z,11.03
2017-10-26T13:35:56.540Z,14.20
2017-10-26T13:38:25.584Z,14.33
2017-10-26T13:40:53.840Z,14.27
2017-10-26T13:43:22.165Z,14.20
2017-10-26T13:45:50.443Z,12.00
2017-10-26T13:48:18.691Z,11.20
2017-10-26T13:50:47.144Z,12.03
2017-10-26T13:53:15.398Z,13.60
2017-10-26T13:55:43.646Z,12.93
2017-10-26T13:58:11.931Z,20.70
2017-10-26T14:00:41.019Z,13.03
2017-10-26T14:03:09.265Z,11.67
2017-10-26T14:05:37.507Z,13.33
2017-10-26T14:08:06.178Z,12.10
2017-10-26T14:10:34.501Z,13.83
2017-10-26T14:13:02.783Z,14.80
2017-10-26T14:15:31.071Z,14.50
2017-10-26T14:17:59.412Z,11.73
2017-10-26T14:20:27.667Z,14.13
2017-10-26T14:22:55.939Z,12.00
2017-10-26T14:25:24.357Z,13.73
2017-10-26T14:27:52.604Z,15.03
2017-10-26T14:30:20.941Z,12.63
2017-10-26T14:32:49.259Z,19.90
2017-10-26T14:35:17.510Z,12.27
2017-10-26T14:37:46.542Z,17.57
2017-10-26T14:40:14.875Z,12.53
2017-10-26T14:42:43.887Z,15.63
2017-10-26T14:45:12.144Z,13.13
2017-10-26T14:47:41.253Z,13.50
2017-10-26T14:50:09.524Z,12.03
2017-10-26T14:52:37.776Z,17.87
2017-10-26T14:55:06.103Z,12.60
2017-10-26T14:57:34.371Z,13.67
2017-10-26T15:00:02.649Z,12.07
2017-10-26T15:02:30.977Z,14.60
2017-10-26T15:04:59.269Z,20.20
2017-10-26T15:07:28.290Z,13.67
2017-10-26T15:09:56.630Z,17.13
2017-10-26T15:12:24.861Z,15.80
2017-10-26T15:14:53.106Z,15.70
2017-10-26T15:17:21.423Z,13.80
2017-10-26T15:19:49.678Z,20.30
2017-10-26T15:22:17.932Z,17.73
2017-10-26T15:24:46.304Z,18.60
2017-10-26T15:27:15.305Z,15.70
2017-10-26T15:29:43.568Z,20.63
2017-10-26T15:32:11.877Z,19.43
2017-10-26T15:34:40.274Z,16.93
2017-10-26T15:37:08.526Z,17.97
2017-10-26T15:39:36.943Z,19.40
2017-10-26T15:42:05.207Z,20.80
2017-10-26T15:44:33.485Z,16.97
2017-10-26T15:47:01.846Z,22.10
2017-10-26T15:49:30.126Z,19.33
2017-10-26T15:51:58.490Z,21.40
2017-10-26T15:54:26.916Z,22.60
2017-10-26T15:56:55.251Z,26.43
2017-10-26T15:59:23.530Z,22.70
2017-10-26T16:01:52.102Z,21.27
2017-10-26T16:04:20.456Z,16.23
2017-10-26T16:06:49.523Z,19.13
2017-10-26T16:09:17.826Z,21.33
2017-10-26T16:11:46.997Z,22.03
2017-10-26T16:14:15.240Z,22.93
2017-10-26T16:16:44.277Z,26.43
2017-10-26T16:19:13.392Z,30.87
2017-10-26T16:21:41.691Z,25.80
2017-10-26T16:24:10.003Z,33.17
2017-10-26T16:26:38.407Z,27.63
2017-10-26T16:29:06.686Z,27.53
2017-10-26T16:31:35.697Z,27.93
2017-10-26T16:34:04.034Z,26.77
2017-10-26T16:36:32.764Z,28.47
2017-10-26T16:39:01.075Z,27.40
2017-10-26T16:41:30.331Z,22.87
2017-10-26T16:44:00.376Z,28.30
2017-10-26T16:46:30.526Z,27.60
2017-10-26T16:49:01.099Z,23.67
2017-10-26T16:51:29.444Z,27.80
2017-10-26T16:53:57.779Z,15.60
2017-10-26T16:56:26.105Z,29.40
2017-10-26T16:58:54.386Z,29.60
2017-10-26T17:01:23.645Z,31.47
2017-10-26T17:03:52.793Z,33.03
2017-10-26T17:06:21.126Z,35.23
2017-10-26T17:08:49.490Z,40.77
2017-10-26T17:11:17.748Z,39.77
2017-10-26T17:13:46.014Z,41.13
2017-10-26T17:16:14.326Z,49.70
2017-10-26T17:18:42.586Z,53.00
2017-10-26T17:21:10.839Z,56.70
2017-10-26T17:23:39.149Z,40.20
2017-10-26T17:26:07.437Z,29.20
2017-10-26T17:28:35.707Z,31.50
2017-10-26T17:31:03.995Z,38.57
2017-10-26T17:33:32.351Z,36.93
2017-10-26T17:36:00.619Z,40.90
2017-10-26T17:38:28.918Z,37.37
2017-10-26T17:40:57.282Z,34.33
2017-10-26T17:43:25.618Z,34.17
2017-10-26T17:45:55.255Z,37.60
2017-10-26T17:48:23.548Z,32.40
2017-10-26T17:50:52.215Z,33.20
2017-10-26T17:53:20.661Z,30.40
2017-10-26T17:55:49.717Z,32.50
2017-10-26T17:58:17.966Z,28.03
2017-10-26T18:00:46.302Z,27.37
2017-10-26T18:03:15.360Z,33.90
2017-10-26T18:05:44.584Z,29.50
2017-10-26T18:08:12.941Z,30.27
2017-10-26T18:10:41.226Z,32.97
2017-10-26T18:13:09.516Z,35.77
2017-10-26T18:15:38.643Z,32.93
2017-10-26T18:18:06.933Z,41.70
2017-10-26T18:20:35.276Z,29.60
2017-10-26T18:23:03.611Z,32.03
2017-10-26T18:25:31.975Z,32.87
2017-10-26T18:28:00.262Z,28.53
2017-10-26T18:30:28.615Z,28.00
2017-10-26T18:32:56.895Z,27.90
2017-10-26T18:35:25.173Z,31.30
2017-10-26T18:37:53.548Z,29.93
2017-10-26T18:40:21.808Z,26.93
2017-10-26T18:42:50.107Z,30.17
2017-10-26T18:45:18.430Z,27.60
2017-10-26T18:47:47.756Z,27.80
2017-10-26T18:50:16.157Z,29.10
2017-10-26T18:52:44.512Z,32.37
2017-10-26T18:55:12.791Z,28.90
2017-10-26T18:57:41.066Z,31.87
2017-10-26T19:00:09.436Z,34.37
2017-10-26T19:02:38.067Z,31.17
2017-10-26T19:05:07.400Z,29.83
2017-10-26T19:07:38.812Z,25.37
2017-10-26T19:10:08.284Z,30.63
2017-10-26T19:12:36.632Z,34.43
2017-10-26T19:15:05.821Z,29.00
2017-10-26T19:17:34.485Z,26.37
2017-10-26T19:20:02.873Z,26.10
2017-10-26T19:22:32.117Z,30.47
2017-10-26T19:25:00.878Z,25.10
2017-10-26T19:27:29.153Z,26.40
2017-10-26T19:29:58.245Z,22.33
2017-10-26T19:32:27.319Z,29.17
2017-10-26T19:34:55.660Z,28.63
2017-10-26T19:37:27.669Z,25.23
2017-10-26T19:39:58.363Z,26.57
2017-10-26T19:45:07.419Z,30.17
2017-10-26T19:47:41.353Z,30.67
2017-10-26T19:50:09.886Z,26.70
2017-10-26T19:52:38.235Z,27.30
2017-10-26T19:55:08.162Z,25.90
2017-10-26T19:57:36.435Z,31.40
2017-10-26T20:00:04.740Z,24.30
2017-10-26T20:02:33.012Z,25.83
2017-10-26T20:05:01.290Z,21.70
2017-10-26T20:07:29.628Z,22.17
2017-10-26T20:09:58.966Z,22.13
2017-10-26T20:12:27.221Z,27.87
2017-10-26T20:14:56.354Z,21.50
2017-10-26T20:17:24.611Z,24.30
2017-10-26T20:19:52.868Z,25.80
2017-10-26T20:22:21.960Z,27.20
2017-10-26T20:24:50.220Z,29.87
2017-10-26T20:27:18.527Z,23.37
2017-10-26T20:29:46.845Z,27.83
2017-10-26T20:32:15.135Z,25.10
2017-10-26T20:34:43.378Z,22.80
2017-10-26T20:37:11.682Z,25.13
2017-10-26T20:39:39.933Z,22.10
2017-10-26T20:42:08.178Z,22.27
2017-10-26T20:44:36.462Z,23.07
2017-10-26T20:47:04.728Z,25.13
2017-10-26T20:49:38.570Z,25.53
2017-10-26T20:52:12.218Z,25.27
2017-10-26T20:54:46.957Z,26.27
2017-10-26T20:57:20.851Z,27.90
2017-10-26T20:59:55.494Z,25.87
2017-10-26T21:02:29.226Z,28.20
2017-10-26T21:05:03.197Z,24.83
2017-10-26T21:07:37.078Z,23.50
2017-10-26T21:10:05.572Z,22.57
2017-10-26T21:12:40.068Z,26.90
2017-10-26T21:15:08.348Z,24.43
2017-10-26T21:17:36.637Z,24.10
2017-10-26T21:20:05.669Z,28.60
2017-10-26T21:22:33.955Z,26.20
2017-10-26T21:25:02.188Z,26.20
2017-10-26T21:27:31.264Z,26.17
2017-10-26T21:29:59.548Z,21.80
2017-10-26T21:32:27.818Z,26.50
2017-10-26T21:34:56.061Z,26.57
2017-10-26T21:37:24.360Z,27.10
2017-10-26T21:39:52.617Z,26.17
2017-10-26T21:42:20.893Z,25.70
2017-10-26T21:44:49.171Z,27.47
2017-10-26T21:47:17.421Z,25.77
2017-10-26T21:49:45.686Z,23.73
2017-10-26T21:52:14.031Z,25.47
2017-10-26T21:54:42.282Z,27.53
2017-10-26T21:57:10.537Z,25.80
2017-10-26T21:59:38.873Z,23.57
2017-10-26T22:02:07.891Z,30.97
2017-10-26T22:04:36.159Z,23.60
2017-10-26T22:07:04.506Z,26.97
2017-10-26T22:09:33.550Z,33.03
2017-10-26T22:12:02.123Z,28.37
2017-10-26T22:14:30.415Z,24.27
2017-10-26T22:16:58.703Z,27.87
2017-10-26T22:19:26.977Z,23.80
2017-10-26T22:21:55.321Z,24.77
2017-10-26T22:24:25.852Z,26.90
2017-10-26T22:26:55.677Z,24.53
2017-10-26T22:29:28.404Z,24.67
2017-10-26T22:31:56.697Z,28.43
2017-10-26T22:34:25.752Z,27.43
2017-10-26T22:36:54.000Z,26.50
2017-10-26T22:39:22.340Z,29.73
2017-10-26T22:41:51.362Z,26.17
2017-10-26T22:44:19.634Z,34.47
2017-10-26T22:46:47.924Z,26.40
2017-10-26T22:49:16.940Z,26.67
2017-10-26T22:51:45.193Z,27.40
2017-10-26T22:54:13.467Z,24.33
2017-10-26T22:56:41.707Z,22.83
2017-10-26T22:59:10.752Z,28.13
2017-10-26T23:01:39.047Z,29.17
2017-10-26T23:04:07.383Z,26.40
2017-10-26T23:06:35.700Z,23.23
2017-10-26T23:09:04.054Z,26.63
2017-10-26T23:11:32.330Z,28.43
2017-10-26T23:14:00.814Z,34.37
2017-10-26T23:16:29.171Z,24.93
2017-10-26T23:18:57.426Z,29.17
2017-10-26T23:21:26.429Z,25.20
2017-10-26T23:23:54.714Z,32.03
2017-10-26T23:26:23.556Z,32.23
2017-10-26T23:28:51.892Z,23.00
2017-10-26T23:31:20.220Z,32.33
2017-10-26T23:33:48.546Z,26.67
2017-10-26T23:36:16.786Z,29.23
2017-10-26T23:38:45.918Z,25.87
2017-10-26T23:41:14.193Z,23.20
2017-10-26T23:43:42.479Z,25.80
2017-10-26T23:46:10.806Z,24.73
2017-10-26T23:48:39.809Z,25.20
2017-10-26T23:51:08.877Z,25.07
2017-10-26T23:53:37.185Z,28.70
2017-10-26T23:56:05.431Z,26.13
2017-10-26T23:58:33.707Z,22.87
